createdAt,value
2023-05-16T11:00:20.597Z,16.43
2023-05-16T11:01:20.434Z,16.68
2023-05-16T11:02:20.433Z,17.12
2023-05-16T11:03:20.462Z,17.28
2023-05-16T11:04:20.375Z,17.26
2023-05-16T11:05:20.364Z,17.40
2023-05-16T11:08:39.102Z,15.75
2023-05-16T11:09:39.063Z,15.34
2023-05-16T11:10:39.063Z,15.75
2023-05-16T11:11:39.075Z,15.92
2023-05-16T11:15:11.156Z,15.07
2023-05-16T11:16:11.174Z,16.07
2023-05-16T11:17:11.226Z,16.61
2023-05-16T11:18:11.212Z,16.97
2023-05-16T11:19:11.110Z,16.48
2023-05-16T11:20:11.067Z,15.80
2023-05-16T11:21:11.069Z,15.49
2023-05-16T11:22:11.071Z,16.15
2023-05-16T11:23:11.014Z,16.24
2023-05-16T11:24:11.010Z,15.86
2023-05-16T11:25:11.061Z,15.57
2023-05-16T11:30:29.939Z,14.99
2023-05-16T11:31:30.018Z,15.28
2023-05-16T11:32:29.958Z,15.47
2023-05-16T11:33:29.936Z,15.89
2023-05-16T11:34:29.878Z,16.49
2023-05-16T11:35:30.127Z,16.91
2023-05-16T11:36:29.844Z,17.49
2023-05-16T11:37:29.835Z,17.16
2023-05-16T11:38:29.797Z,16.17
2023-05-16T11:39:29.802Z,16.11
2023-05-16T11:40:29.764Z,16.15
2023-05-16T11:41:29.760Z,15.72
2023-05-16T11:42:29.761Z,15.34
2023-05-16T11:50:00.619Z,15.29
2023-05-16T11:51:00.569Z,16.30
2023-05-16T11:52:00.589Z,17.00
2023-05-16T11:53:00.561Z,17.87
2023-05-16T11:54:00.539Z,17.46
2023-05-16T11:55:00.524Z,16.79
2023-05-16T11:56:00.496Z,16.14
2023-05-16T11:57:00.466Z,16.05
2023-05-16T11:58:00.493Z,16.31
2023-05-16T11:59:00.454Z,16.21
2023-05-16T12:00:00.427Z,16.24
2023-05-16T12:01:00.412Z,16.38
2023-05-16T12:02:00.399Z,16.61
2023-05-16T12:03:00.470Z,17.16
2023-05-16T12:04:00.535Z,17.66
2023-05-16T12:05:00.417Z,17.28
2023-05-16T12:06:00.461Z,17.58
2023-05-16T12:07:00.329Z,17.78
2023-05-16T12:08:00.337Z,17.87
2023-05-16T12:09:00.291Z,18.07
2023-05-16T12:10:00.282Z,17.81
2023-05-16T12:11:00.254Z,18.50
2023-05-16T12:12:00.247Z,18.08
2023-05-16T12:13:00.264Z,17.79
2023-05-16T12:14:00.241Z,16.85
2023-05-16T12:15:00.223Z,16.66
2023-05-16T12:23:11.166Z,15.69
2023-05-16T12:24:11.046Z,15.86
2023-05-16T12:25:11.042Z,16.08
2023-05-16T12:33:05.975Z,15.49
2023-05-16T12:34:03.548Z,15.57
2023-05-16T12:35:03.529Z,16.12
2023-05-16T12:36:03.532Z,16.53
2023-05-16T12:37:03.513Z,17.36
2023-05-16T12:38:03.505Z,17.37
2023-05-16T12:39:03.617Z,17.46
2023-05-16T12:40:03.440Z,17.97
2023-05-16T12:41:03.461Z,18.12
2023-05-16T12:42:03.410Z,18.12
2023-05-16T12:43:03.418Z,17.97
2023-05-16T12:44:03.398Z,18.03
2023-05-16T12:45:03.401Z,18.08
2023-05-16T12:46:03.397Z,18.54
2023-05-16T12:47:03.359Z,18.39
2023-05-16T12:48:03.360Z,18.39
2023-05-16T12:49:03.328Z,17.90
2023-05-16T12:50:03.288Z,17.99
2023-05-16T12:51:03.283Z,17.66
2023-05-16T12:52:03.276Z,17.90
2023-05-16T12:53:03.263Z,18.33
2023-05-16T12:54:10.166Z,17.93
2023-05-16T12:55:03.227Z,18.45
2023-05-16T12:56:03.218Z,18.23
2023-05-16T12:57:03.212Z,17.95
2023-05-16T12:58:03.228Z,18.57
2023-05-16T12:59:03.170Z,18.91
2023-05-16T13:00:03.173Z,19.51
2023-05-16T13:01:03.171Z,18.69
2023-05-16T13:02:03.236Z,18.94
2023-05-16T13:03:03.233Z,19.48
2023-05-16T13:04:03.276Z,18.87
2023-05-16T13:05:03.090Z,18.25
2023-05-16T13:06:03.058Z,17.75
2023-05-16T13:07:03.073Z,18.21
2023-05-16T13:08:03.078Z,17.86
2023-05-16T13:09:03.052Z,17.89
2023-05-16T13:10:03.030Z,18.18
2023-05-16T13:11:03.169Z,17.64
2023-05-16T13:12:03.004Z,18.21
2023-05-16T13:13:02.993Z,18.07
2023-05-16T13:13:57.173Z,17.48
2023-05-16T13:14:57.865Z,17.70
2023-05-16T13:15:57.208Z,18.37
2023-05-16T13:16:57.152Z,17.89
2023-05-16T13:19:48.915Z,17.40
2023-05-16T13:33:51.376Z,15.84
2023-05-16T13:34:51.336Z,16.05
2023-05-16T13:37:55.520Z,15.96
2023-05-16T13:38:55.505Z,16.48
2023-05-16T13:39:55.512Z,17.07
2023-05-16T13:40:55.462Z,16.70
2023-05-16T13:41:55.457Z,16.88
2023-05-16T13:42:55.448Z,17.25
2023-05-16T13:43:55.437Z,18.03
2023-05-16T13:44:55.417Z,18.26
2023-05-16T13:45:55.472Z,18.14
2023-05-16T13:46:55.381Z,18.20
2023-05-16T13:47:55.392Z,18.33
2023-05-16T13:48:55.511Z,17.62
2023-05-16T13:49:55.346Z,17.74
2023-05-16T13:50:55.316Z,17.14
2023-05-16T13:51:55.310Z,17.26
2023-05-16T13:52:55.310Z,18.29
2023-05-16T13:53:55.300Z,18.14
2023-05-16T13:54:55.281Z,17.89
2023-05-16T13:55:55.279Z,18.20
2023-05-16T13:56:55.254Z,18.08
2023-05-16T13:57:55.250Z,17.52
2023-05-16T13:59:03.771Z,18.33
2023-05-16T14:00:55.224Z,17.28
2023-05-16T14:01:55.276Z,17.28
2023-05-16T14:02:55.182Z,17.00
2023-05-16T14:03:55.232Z,16.42
2023-05-16T14:04:55.240Z,16.30
2023-05-16T14:05:55.136Z,17.01
2023-05-16T14:06:55.128Z,18.03
2023-05-16T14:07:55.104Z,18.08
2023-05-16T14:08:55.101Z,18.32
2023-05-16T14:09:55.108Z,18.55
2023-05-16T14:10:55.088Z,18.14
2023-05-16T14:11:55.085Z,17.66
2023-05-16T14:12:55.064Z,17.34
2023-05-16T14:13:55.068Z,17.63
2023-05-16T14:14:55.037Z,18.25
2023-05-16T14:15:55.049Z,18.37
2023-05-16T14:16:55.104Z,18.55
2023-05-16T14:17:55.073Z,18.82
2023-05-16T14:18:55.030Z,18.62
2023-05-16T14:19:54.980Z,18.70
2023-05-16T14:20:55.116Z,18.37
2023-05-16T14:21:54.968Z,18.67
2023-05-16T14:22:54.951Z,19.26
2023-05-16T14:23:54.946Z,19.23
2023-05-16T14:26:05.705Z,18.55
2023-05-16T14:27:04.712Z,18.99
2023-05-16T14:28:04.036Z,18.95
2023-05-16T14:30:18.548Z,18.80
2023-05-16T14:31:18.551Z,19.02
2023-05-16T14:32:18.584Z,18.70
2023-05-16T14:33:18.552Z,18.76
2023-05-16T14:34:18.520Z,18.00
2023-05-16T14:35:18.474Z,18.14
2023-05-16T14:36:18.564Z,18.36
2023-05-16T14:37:18.474Z,18.99
2023-05-16T14:38:18.454Z,19.33
2023-05-16T14:40:23.879Z,18.11
2023-05-16T14:41:23.849Z,18.39
2023-05-16T14:42:23.834Z,18.80
2023-05-16T14:43:23.835Z,19.06
2023-05-16T14:44:23.822Z,18.08
2023-05-16T14:45:24.533Z,17.93
2023-05-16T14:46:23.856Z,17.64
2023-05-16T14:47:23.807Z,17.38
2023-05-16T14:54:06.523Z,16.45
2023-05-16T14:55:06.332Z,16.68
2023-05-16T14:58:36.498Z,16.98
2023-05-16T14:59:36.469Z,18.10
2023-05-16T15:00:36.478Z,18.36
2023-05-16T15:03:55.256Z,18.48
2023-05-16T15:05:23.171Z,18.10
2023-05-16T15:07:32.996Z,18.27
2023-05-16T15:08:34.304Z,18.76
2023-05-16T15:10:52.324Z,18.75
2023-05-16T15:11:52.229Z,18.57
2023-05-16T15:12:52.228Z,18.95
2023-05-16T15:13:52.223Z,18.99
2023-05-16T15:14:52.200Z,19.69
2023-05-16T15:15:52.944Z,19.31
2023-05-16T15:16:52.194Z,19.73
2023-05-16T15:17:52.219Z,20.01
2023-05-16T15:18:52.184Z,19.51
2023-05-16T15:19:52.136Z,18.87
2023-05-16T15:20:52.139Z,19.29
2023-05-16T15:21:52.108Z,19.66
2023-05-16T15:22:52.098Z,20.48
2023-05-16T15:23:52.101Z,20.50
2023-05-16T15:24:52.092Z,20.43
2023-05-16T15:25:52.069Z,19.80
2023-05-16T15:27:33.075Z,18.55
2023-05-16T15:28:33.005Z,18.54
2023-05-16T15:29:32.993Z,18.52
2023-05-16T15:30:32.978Z,18.94
2023-05-16T16:41:46.573Z,16.27
